Time;durP1;ratioP1;P1;durP2;ratioP2;P2;SDS_P1;SDS_P2;PMS_P1;PMS_P2;Temp;Humidity;BMP_temperature;BMP_pressure;BME280_temperature;BME280_humidity;BME280_pressure;Samples;Min_cycle;Max_cycle;Signal;HPM_P1;HPM_P2
2023/04/21 00:02:16;;;;;;;15.82;6.47;;;13.50;96.80;;;;;;4995647;28;20049;-64
2023/04/21 00:04:44;;;;;;;12.43;6.35;;;13.50;96.80;;;;;;4996078;28;20050;-64
2023/04/21 00:07:10;;;;;;;14.98;6.75;;;13.50;96.90;;;;;;4995019;28;20033;-64
2023/04/21 00:09:36;;;;;;;14.30;5.80;;;13.40;96.90;;;;;;4996445;28;20515;-63
2023/04/21 00:12:01;;;;;;;10.95;6.43;;;13.40;96.90;;;;;;5010448;28;20026;-64
2023/04/21 00:14:27;;;;;;;16.77;6.82;;;13.40;97.00;;;;;;4996527;28;20032;-64
2023/04/21 00:16:52;;;;;;;13.15;7.10;;;13.30;97.00;;;;;;4997813;28;20022;-63
2023/04/21 00:19:19;;;;;;;13.18;6.88;;;13.30;97.10;;;;;;4995463;28;20042;-64
2023/04/21 00:21:45;;;;;;;10.63;6.47;;;13.30;97.10;;;;;;4997433;28;20029;-65
2023/04/21 00:24:11;;;;;;;9.32;6.10;;;13.20;97.10;;;;;;4996516;28;20053;-65
2023/04/21 00:26:36;;;;;;;14.43;6.50;;;13.20;97.10;;;;;;4997136;28;20030;-65
2023/04/21 00:29:02;;;;;;;11.27;6.35;;;13.20;97.20;;;;;;5003105;28;20041;-65
2023/04/21 00:31:28;;;;;;;10.80;7.35;;;13.10;97.20;;;;;;5011396;28;21631;-65
2023/04/21 00:33:54;;;;;;;11.85;6.82;;;13.10;97.20;;;;;;4995873;28;20088;-65
2023/04/21 00:36:20;;;;;;;13.10;6.88;;;13.10;97.20;;;;;;4995577;28;20038;-65
2023/04/21 00:38:46;;;;;;;15.10;6.85;;;13.00;97.20;;;;;;4996153;28;20095;-65
2023/04/21 00:41:11;;;;;;;15.57;6.82;;;13.00;97.20;;;;;;4996779;28;20718;-65
2023/04/21 00:43:57;;;;;;;13.63;7.70;;;13.00;97.20;;;;;;4996258;28;20048;-65
2023/04/21 00:46:22;;;;;;;13.32;6.93;;;13.00;97.30;;;;;;4994745;28;20026;-65
2023/04/21 00:48:48;;;;;;;12.63;7.50;;;12.90;97.20;;;;;;4994401;28;20030;-65
2023/04/21 00:51:13;;;;;;;13.98;6.88;;;12.90;97.30;;;;;;4995218;28;20026;-65
2023/04/21 00:53:39;;;;;;;11.80;7.68;;;12.90;97.30;;;;;;4996214;28;20073;-65
2023/04/21 00:56:05;;;;;;;10.52;6.38;;;12.80;97.20;;;;;;4996036;28;20034;-65
2023/04/21 00:58:32;;;;;;;13.05;7.35;;;12.80;97.30;;;;;;4994415;28;20034;-65
2023/04/21 01:00:58;;;;;;;12.52;6.88;;;12.80;97.30;;;;;;4995178;28;20128;-64
2023/04/21 01:03:24;;;;;;;13.73;6.78;;;12.70;97.20;;;;;;5011865;28;20044;-64
2023/04/21 01:05:49;;;;;;;13.88;7.50;;;12.70;97.20;;;;;;4998330;28;20057;-64
2023/04/21 01:08:15;;;;;;;14.95;7.78;;;12.70;97.20;;;;;;4996711;28;20021;-64
2023/04/21 01:10:41;;;;;;;12.57;7.28;;;12.70;97.20;;;;;;4995702;28;20394;-64
2023/04/21 01:13:06;;;;;;;12.45;8.07;;;12.70;97.20;;;;;;4995604;28;20026;-63
2023/04/21 01:15:32;;;;;;;13.55;8.20;;;12.70;97.20;;;;;;4994555;28;20034;-64
2023/04/21 01:17:58;;;;;;;11.27;8.18;;;12.60;97.10;;;;;;4995317;28;20498;-64
2023/04/21 01:20:23;;;;;;;12.70;8.07;;;12.60;97.10;;;;;;4994512;28;20095;-64
2023/04/21 01:22:50;;;;;;;16.70;8.35;;;12.60;97.10;;;;;;5001396;28;20437;-64
2023/04/21 01:25:17;;;;;;;12.60;6.88;;;12.50;97.00;;;;;;4995915;28;20041;-63
2023/04/21 01:27:43;;;;;;;15.00;8.65;;;12.50;97.00;;;;;;4993306;28;20128;-65
2023/04/21 01:30:09;;;;;;;13.15;7.97;;;12.50;97.00;;;;;;4994780;28;20445;-64
2023/04/21 01:32:35;;;;;;;15.60;8.63;;;12.50;96.90;;;;;;4994259;28;20022;-64
2023/04/21 01:35:01;;;;;;;12.32;8.02;;;12.40;96.90;;;;;;4995203;28;20478;-64
2023/04/21 01:37:30;;;;;;;12.50;8.02;;;12.40;96.90;;;;;;4995570;28;20040;-64
2023/04/21 01:39:59;;;;;;;16.17;8.13;;;12.40;96.80;;;;;;4996322;28;20176;-64
2023/04/21 01:42:26;;;;;;;13.45;7.85;;;12.40;96.80;;;;;;4994048;28;20093;-65
2023/04/21 01:44:53;;;;;;;11.75;8.95;;;12.30;96.80;;;;;;4997883;28;20505;-65
2023/04/21 01:47:19;;;;;;;12.27;8.25;;;12.30;96.70;;;;;;4995894;28;20035;-64
2023/04/21 01:49:45;;;;;;;15.88;8.57;;;12.30;96.80;;;;;;4995016;28;20429;-65
2023/04/21 01:52:10;;;;;;;14.40;8.45;;;12.30;96.80;;;;;;4982235;28;20022;-66
2023/04/21 01:54:36;;;;;;;12.13;8.00;;;12.20;96.80;;;;;;4994263;28;20088;-66
2023/04/21 01:57:02;;;;;;;11.65;7.20;;;12.20;96.70;;;;;;4995157;28;20136;-66
2023/04/21 01:59:28;;;;;;;15.30;8.73;;;12.20;96.70;;;;;;4993371;28;20048;-67
2023/04/21 02:01:53;;;;;;;13.25;8.25;;;12.20;96.70;;;;;;4993250;28;20045;-66
2023/04/21 02:04:19;;;;;;;11.90;8.10;;;12.20;96.70;;;;;;4994299;28;20046;-66
2023/04/21 02:06:45;;;;;;;12.10;8.73;;;12.20;96.70;;;;;;4994101;28;20157;-66
2023/04/21 02:09:10;;;;;;;11.85;8.65;;;12.10;96.60;;;;;;4996676;28;20036;-66
2023/04/21 02:11:36;;;;;;;13.48;8.77;;;12.20;96.70;;;;;;4995217;28;20494;-66
2023/04/21 02:14:02;;;;;;;14.75;9.13;;;12.10;96.60;;;;;;4994304;28;20038;-67
2023/04/21 02:16:28;;;;;;;14.30;8.45;;;12.10;96.60;;;;;;4994325;28;20100;-67
2023/04/21 02:19:04;;;;;;;12.00;8.57;;;12.10;96.60;;;;;;4994529;28;20037;-67
2023/04/21 02:21:31;;;;;;;11.98;8.40;;;12.10;96.60;;;;;;4994009;28;20123;-67
2023/04/21 02:23:57;;;;;;;15.65;8.30;;;12.00;96.60;;;;;;4993540;28;20116;-66
2023/04/21 02:26:23;;;;;;;12.43;8.57;;;12.00;96.60;;;;;;4992899;28;20113;-67
2023/04/21 02:28:49;;;;;;;13.50;9.55;;;12.00;96.60;;;;;;4994591;28;20079;-67
2023/04/21 02:31:15;;;;;;;15.05;8.70;;;12.00;96.60;;;;;;4993964;28;20034;-67
2023/04/21 02:33:41;;;;;;;14.57;8.95;;;12.00;96.50;;;;;;4993112;28;20065;-67
2023/04/21 02:36:07;;;;;;;12.57;7.75;;;12.00;96.50;;;;;;4991493;28;20117;-67
2023/04/21 02:38:32;;;;;;;11.02;7.65;;;11.90;96.50;;;;;;4994335;28;20037;-66
2023/04/21 02:40:58;;;;;;;13.25;8.63;;;12.00;96.50;;;;;;4993977;28;20022;-67
2023/04/21 02:43:24;;;;;;;12.98;8.20;;;11.90;96.40;;;;;;4994417;28;20088;-65
2023/04/21 02:45:50;;;;;;;13.90;9.25;;;11.90;96.40;;;;;;4993633;28;20045;-66
2023/04/21 02:48:21;;;;;;;15.48;9.10;;;11.90;96.40;;;;;;4994138;28;20061;-66
2023/04/21 02:50:51;;;;;;;11.40;8.40;;;11.90;96.30;;;;;;4996014;28;20610;-66
2023/04/21 02:53:20;;;;;;;14.00;9.35;;;11.90;96.30;;;;;;4993281;28;20030;-66
2023/04/21 02:55:46;;;;;;;12.73;8.93;;;11.90;96.30;;;;;;4990799;28;21714;-66
2023/04/21 02:58:11;;;;;;;12.90;8.98;;;11.90;96.20;;;;;;4993517;28;20095;-66
2023/04/21 03:00:37;;;;;;;13.10;9.18;;;11.80;96.20;;;;;;4997201;28;20056;-66
2023/04/21 03:03:03;;;;;;;10.77;8.10;;;11.80;96.20;;;;;;4993969;28;20030;-67
2023/04/21 03:05:29;;;;;;;13.05;8.25;;;11.80;96.20;;;;;;4994889;28;20044;-66
2023/04/21 03:07:55;;;;;;;11.82;8.52;;;11.80;96.20;;;;;;4992806;28;20027;-66
2023/04/21 03:10:20;;;;;;;12.73;8.50;;;11.80;96.20;;;;;;4994597;28;20030;-67
2023/04/21 03:12:46;;;;;;;13.85;8.48;;;11.80;96.20;;;;;;4994086;28;20027;-66
2023/04/21 03:15:13;;;;;;;13.18;8.85;;;11.80;96.20;;;;;;4993238;28;20058;-66
2023/04/21 03:17:39;;;;;;;12.43;8.68;;;11.80;96.20;;;;;;5009983;28;20382;-66
2023/04/21 03:20:07;;;;;;;16.45;10.25;;;11.80;96.10;;;;;;4996683;28;20053;-66
2023/04/21 03:22:34;;;;;;;12.40;9.45;;;11.70;96.10;;;;;;4996732;28;20368;-66
2023/04/21 03:24:59;;;;;;;16.20;9.73;;;11.70;96.10;;;;;;4996014;28;20042;-66
2023/04/21 03:27:25;;;;;;;11.38;8.95;;;11.70;96.10;;;;;;4998762;28;20084;-66
2023/04/21 03:29:51;;;;;;;12.98;9.45;;;11.60;96.10;;;;;;4996869;28;20496;-66
2023/04/21 03:32:16;;;;;;;12.65;9.05;;;11.60;96.10;;;;;;4995412;28;20371;-66
2023/04/21 03:34:42;;;;;;;14.55;9.48;;;11.60;96.10;;;;;;4998152;28;20543;-66
2023/04/21 03:37:07;;;;;;;12.10;9.50;;;11.60;96.10;;;;;;4996195;28;20030;-66
2023/04/21 03:39:33;;;;;;;14.93;9.38;;;11.50;96.10;;;;;;4996123;28;20365;-65
2023/04/21 03:42:00;;;;;;;13.13;9.48;;;11.50;96.10;;;;;;4997443;28;20100;-66
2023/04/21 03:44:28;;;;;;;13.38;9.40;;;11.50;96.10;;;;;;4997384;28;20041;-66
2023/04/21 03:46:54;;;;;;;12.70;9.60;;;11.50;96.10;;;;;;4996479;28;20117;-66
2023/04/21 03:49:20;;;;;;;15.80;10.18;;;11.40;96.10;;;;;;4997645;28;20037;-65
2023/04/21 03:51:46;;;;;;;12.80;9.25;;;11.40;96.10;;;;;;4996963;28;20033;-68
2023/04/21 03:54:11;;;;;;;14.82;9.50;;;11.40;96.10;;;;;;4999263;28;20040;-64
2023/04/21 03:56:37;;;;;;;14.82;9.45;;;11.40;96.10;;;;;;5008841;28;20052;-66
2023/04/21 03:59:03;;;;;;;15.38;9.80;;;11.40;96.20;;;;;;4997051;28;20371;-66
2023/04/21 04:01:28;;;;;;;13.40;9.50;;;11.40;96.20;;;;;;4994519;28;20052;-66
2023/04/21 04:03:54;;;;;;;16.20;9.88;;;11.40;96.20;;;;;;5002682;28;20033;-67
2023/04/21 04:06:20;;;;;;;12.65;9.98;;;11.30;96.20;;;;;;5012537;28;20033;-67
2023/04/21 04:08:45;;;;;;;12.05;9.25;;;11.30;96.20;;;;;;4996834;28;20394;-67
2023/04/21 04:11:11;;;;;;;16.10;9.77;;;11.30;96.20;;;;;;4996853;28;20044;-66
2023/04/21 04:13:37;;;;;;;15.07;9.70;;;11.30;96.20;;;;;;4996864;28;20494;-67
2023/04/21 04:16:02;;;;;;;13.43;9.85;;;11.30;96.20;;;;;;4997817;28;20029;-67
2023/04/21 04:18:28;;;;;;;12.77;9.00;;;11.30;96.20;;;;;;5012027;28;20053;-68
2023/04/21 04:20:53;;;;;;;13.90;9.63;;;11.30;96.20;;;;;;4995753;28;20437;-67
2023/04/21 04:23:19;;;;;;;17.67;10.27;;;11.30;96.20;;;;;;4996074;28;20062;-66
2023/04/21 04:25:46;;;;;;;13.52;9.88;;;11.30;96.20;;;;;;4996730;28;20042;-67
2023/04/21 04:28:12;;;;;;;13.95;9.57;;;11.30;96.20;;;;;;4994755;28;20445;-66
2023/04/21 04:30:38;;;;;;;13.25;9.55;;;11.30;96.20;;;;;;4995626;28;20034;-67
2023/04/21 04:33:04;;;;;;;16.13;9.52;;;11.30;96.20;;;;;;5005217;28;20034;-67
2023/04/21 04:35:29;;;;;;;13.60;10.10;;;11.30;96.20;;;;;;5011390;28;20064;-66
2023/04/21 04:37:56;;;;;;;16.85;10.48;;;11.20;96.20;;;;;;4995469;28;20478;-65
2023/04/21 04:40:22;;;;;;;14.93;11.18;;;11.30;96.20;;;;;;5011957;28;20032;-65
2023/04/21 04:42:48;;;;;;;13.15;10.00;;;11.30;96.20;;;;;;4996757;28;20038;-65
2023/04/21 04:45:15;;;;;;;18.45;11.05;;;11.30;96.20;;;;;;4994502;28;20502;-66
2023/04/21 04:47:41;;;;;;;12.32;9.75;;;11.30;96.20;;;;;;4994679;28;20568;-66
2023/04/21 04:50:07;;;;;;;13.82;10.55;;;11.30;96.20;;;;;;4997568;28;20129;-66
2023/04/21 04:52:33;;;;;;;12.07;9.43;;;11.30;96.20;;;;;;4997166;28;20030;-66
2023/04/21 04:54:58;;;;;;;14.70;10.05;;;11.30;96.20;;;;;;4996544;28;20820;-66
2023/04/21 04:57:24;;;;;;;20.48;11.45;;;11.30;96.20;;;;;;5002552;28;20033;-66
2023/04/21 04:59:54;;;;;;;17.42;11.00;;;11.30;96.10;;;;;;4995335;28;20782;-67
2023/04/21 05:02:22;;;;;;;14.82;10.20;;;11.30;96.10;;;;;;4995521;28;20041;-67
2023/04/21 05:04:50;;;;;;;16.42;10.90;;;11.40;96.10;;;;;;4995824;28;20181;-67
2023/04/21 05:07:16;;;;;;;15.65;11.55;;;11.30;96.10;;;;;;4997311;28;20497;-67
2023/04/21 05:09:41;;;;;;;14.82;10.25;;;11.40;96.00;;;;;;4995245;28;20029;-66
2023/04/21 05:12:08;;;;;;;15.27;10.05;;;11.40;96.00;;;;;;4997549;28;20041;-66
2023/04/21 05:14:33;;;;;;;13.02;9.55;;;11.40;96.00;;;;;;4993997;28;20034;-66
2023/04/21 05:16:59;;;;;;;12.73;9.88;;;11.40;96.00;;;;;;4996224;28;20069;-66
2023/04/21 05:19:25;;;;;;;12.57;9.65;;;11.50;95.90;;;;;;4994765;28;20367;-66
2023/04/21 05:21:50;;;;;;;13.75;9.80;;;11.50;95.90;;;;;;4996408;28;20075;-66
2023/04/21 05:24:21;;;;;;;14.85;10.85;;;11.50;95.90;;;;;;4994316;28;20049;-66
2023/04/21 05:26:47;;;;;;;14.10;10.80;;;11.50;95.80;;;;;;4996032;28;20035;-67
2023/04/21 05:29:13;;;;;;;16.17;9.13;;;11.50;95.80;;;;;;4996476;28;20084;-67
2023/04/21 05:31:38;;;;;;;14.18;10.13;;;11.60;95.80;;;;;;4996297;28;20126;-66
2023/04/21 05:34:04;;;;;;;12.93;9.55;;;11.60;96.00;;;;;;4991860;28;20093;-66
2023/04/21 05:36:30;;;;;;;13.18;9.63;;;11.60;95.70;;;;;;4994130;28;20034;-67
2023/04/21 05:38:56;;;;;;;13.77;10.75;;;11.70;95.70;;;;;;4992408;28;20134;-65
2023/04/21 05:41:21;;;;;;;15.05;9.82;;;11.70;95.70;;;;;;4998191;28;20112;-65
2023/04/21 05:43:47;;;;;;;16.45;9.77;;;11.70;95.70;;;;;;4994976;28;20041;-66
2023/04/21 05:46:12;;;;;;;15.98;11.13;;;11.70;95.60;;;;;;4996297;28;20080;-65
2023/04/21 05:48:39;;;;;;;15.38;10.90;;;11.80;95.50;;;;;;4994265;28;20037;-64
2023/04/21 05:51:22;;;;;;;17.83;11.40;;;11.80;95.40;;;;;;4996417;28;20489;-65
2023/04/21 05:53:48;;;;;;;13.02;10.75;;;11.90;95.50;;;;;;4994746;28;20056;-65
2023/04/21 05:56:13;;;;;;;15.85;11.35;;;11.90;95.40;;;;;;4996818;28;20018;-66
2023/04/21 05:58:39;;;;;;;17.70;11.10;;;12.00;95.30;;;;;;4997996;28;20453;-66
2023/04/21 06:01:05;;;;;;;15.35;10.55;;;12.00;95.30;;;;;;4994022;28;20129;-66
2023/04/21 06:03:31;;;;;;;13.48;9.93;;;12.10;95.30;;;;;;4995737;28;20042;-65
2023/04/21 06:06:00;;;;;;;15.68;10.60;;;12.10;95.20;;;;;;4993344;28;20489;-65
2023/04/21 06:08:25;;;;;;;12.50;10.32;;;12.20;95.10;;;;;;4991748;28;20264;-65
2023/04/21 06:10:51;;;;;;;15.30;10.38;;;12.20;95.10;;;;;;4995291;28;20257;-66
2023/04/21 06:13:17;;;;;;;13.82;10.10;;;12.30;95.10;;;;;;4993436;28;20386;-66
2023/04/21 06:15:42;;;;;;;13.95;9.55;;;12.40;95.00;;;;;;4994626;28;20082;-66
2023/04/21 06:18:08;;;;;;;17.45;11.15;;;12.40;94.90;;;;;;4995303;28;20064;-65
2023/04/21 06:20:33;;;;;;;16.15;10.77;;;12.40;94.90;;;;;;4994305;28;20038;-66
2023/04/21 06:22:59;;;;;;;13.35;9.35;;;12.50;94.60;;;;;;4994449;28;20084;-66
2023/04/21 06:25:25;;;;;;;12.95;10.13;;;12.50;94.70;;;;;;4994293;28;20926;-65
2023/04/21 06:27:50;;;;;;;14.30;10.20;;;12.60;94.70;;;;;;4996140;28;20104;-66
2023/04/21 06:30:16;;;;;;;14.93;10.70;;;12.60;94.50;;;;;;4995857;28;20036;-65
2023/04/21 06:32:44;;;;;;;14.27;9.98;;;12.70;94.50;;;;;;4992649;28;20040;-65
2023/04/21 06:35:10;;;;;;;14.45;9.95;;;12.80;94.40;;;;;;4992203;28;20037;-64
2023/04/21 06:37:36;;;;;;;11.43;9.55;;;12.80;94.30;;;;;;4993351;28;20026;-65
2023/04/21 06:40:02;;;;;;;12.90;9.20;;;12.90;94.10;;;;;;4995219;28;20034;-65
2023/04/21 06:42:27;;;;;;;13.35;9.77;;;13.00;94.20;;;;;;4994366;28;20037;-65
2023/04/21 06:44:54;;;;;;;13.32;9.23;;;13.00;94.10;;;;;;4994720;28;20498;-65
2023/04/21 06:47:20;;;;;;;14.50;9.23;;;13.10;94.10;;;;;;4994957;28;20026;-65
2023/04/21 06:49:46;;;;;;;12.48;9.45;;;13.20;93.90;;;;;;4994324;28;20030;-65
2023/04/21 06:52:11;;;;;;;11.35;8.85;;;13.30;93.90;;;;;;4995461;28;20461;-64
2023/04/21 06:54:37;;;;;;;11.27;9.02;;;13.30;93.80;;;;;;4997944;28;20046;-64
2023/04/21 06:57:02;;;;;;;13.70;8.70;;;13.40;93.70;;;;;;4997357;28;20471;-64
2023/04/21 06:59:28;;;;;;;12.25;9.63;;;13.40;93.70;;;;;;4997903;28;20065;-65
2023/04/21 07:01:53;;;;;;;12.25;9.15;;;13.50;93.60;;;;;;4998296;28;20103;-64
2023/04/21 07:04:20;;;;;;;14.30;9.00;;;13.60;93.50;;;;;;4997954;28;20476;-64
2023/04/21 07:06:47;;;;;;;14.38;10.15;;;13.60;93.30;;;;;;4998151;28;20030;-65
2023/04/21 07:09:13;;;;;;;11.02;9.70;;;13.70;93.30;;;;;;4998476;28;20038;-65
2023/04/21 07:11:38;;;;;;;12.88;9.43;;;13.70;93.10;;;;;;4997136;28;20541;-65
2023/04/21 07:14:05;;;;;;;15.85;9.40;;;13.80;93.10;;;;;;4996306;28;20045;-65
2023/04/21 07:16:31;;;;;;;13.93;9.88;;;13.80;93.00;;;;;;4999194;28;20382;-65
2023/04/21 07:18:57;;;;;;;11.90;8.52;;;13.80;92.90;;;;;;4997101;28;20026;-65
2023/04/21 07:21:22;;;;;;;14.45;8.25;;;13.90;92.80;;;;;;5000081;28;20025;-65
2023/04/21 07:23:48;;;;;;;16.45;9.65;;;14.00;92.90;;;;;;4997650;28;20057;-65
2023/04/21 07:26:13;;;;;;;15.20;9.15;;;14.00;92.70;;;;;;4999815;28;20037;-64
2023/04/21 07:28:42;;;;;;;15.30;10.60;;;14.10;92.60;;;;;;4998839;28;20789;-65
2023/04/21 07:31:08;;;;;;;16.60;9.68;;;14.10;92.60;;;;;;4998889;28;20470;-65
2023/04/21 07:33:33;;;;;;;15.30;11.27;;;14.20;92.50;;;;;;4999111;28;20081;-65
2023/04/21 07:35:59;;;;;;;16.42;10.00;;;14.20;92.30;;;;;;4994949;28;20292;-65
2023/04/21 07:38:25;;;;;;;12.00;9.20;;;14.30;92.40;;;;;;5001419;28;20477;-65
2023/04/21 07:40:50;;;;;;;16.42;10.43;;;14.30;92.30;;;;;;4998537;28;20051;-65
2023/04/21 07:43:18;;;;;;;13.77;9.27;;;14.40;91.90;;;;;;4997684;28;20057;-65
2023/04/21 07:45:44;;;;;;;13.40;8.93;;;14.40;92.00;;;;;;4996995;28;20052;-65
2023/04/21 07:48:10;;;;;;;12.70;9.50;;;14.40;91.70;;;;;;4998586;28;20034;-65
2023/04/21 07:50:35;;;;;;;14.68;9.65;;;14.50;91.60;;;;;;4997522;28;21228;-65
2023/04/21 07:53:01;;;;;;;16.15;9.63;;;14.60;91.70;;;;;;4997840;28;20053;-65
2023/04/21 07:55:28;;;;;;;15.27;9.68;;;14.60;91.40;;;;;;4997049;28;20029;-65
2023/04/21 07:57:54;;;;;;;10.27;8.90;;;14.70;91.30;;;;;;4998181;28;20065;-65
2023/04/21 08:00:20;;;;;;;14.95;9.27;;;14.70;91.30;;;;;;4997707;28;20129;-66
2023/04/21 08:02:45;;;;;;;12.25;8.82;;;14.80;91.20;;;;;;4995632;28;20514;-64
2023/04/21 08:05:11;;;;;;;16.02;9.40;;;14.90;91.20;;;;;;4999128;28;20296;-65
2023/04/21 08:07:37;;;;;;;10.63;8.70;;;14.90;91.10;;;;;;4998107;28;20030;-66
2023/04/21 08:10:03;;;;;;;13.65;9.43;;;15.00;91.10;;;;;;4996818;28;20089;-65
2023/04/21 08:12:29;;;;;;;15.32;9.20;;;15.10;91.10;;;;;;4998462;28;20083;-65
2023/04/21 08:14:55;;;;;;;12.52;8.93;;;15.10;90.60;;;;;;4997642;28;20026;-66
2023/04/21 08:17:20;;;;;;;13.52;8.23;;;15.20;90.50;;;;;;4997370;28;20088;-65
2023/04/21 08:19:46;;;;;;;12.80;9.32;;;15.30;90.70;;;;;;4996145;28;20033;-65
2023/04/21 08:22:11;;;;;;;12.63;8.65;;;15.30;90.50;;;;;;4996593;28;20087;-65
2023/04/21 08:24:37;;;;;;;15.52;9.27;;;15.40;90.40;;;;;;4994093;28;20037;-65
2023/04/21 08:27:02;;;;;;;11.60;9.20;;;15.40;90.00;;;;;;4996577;28;20377;-65
2023/04/21 08:29:28;;;;;;;16.45;8.65;;;15.50;89.90;;;;;;4997750;28;20052;-65
2023/04/21 08:31:54;;;;;;;12.70;9.07;;;15.60;89.70;;;;;;4996192;28;20440;-65
2023/04/21 08:34:21;;;;;;;14.25;8.23;;;15.70;90.00;;;;;;4998482;28;20114;-65
2023/04/21 08:36:46;;;;;;;9.52;8.50;;;15.80;90.00;;;;;;4995385;28;20113;-65
2023/04/21 08:39:15;;;;;;;10.52;8.45;;;15.90;89.70;;;;;;4995905;28;20033;-65
2023/04/21 08:41:40;;;;;;;11.70;8.13;;;15.90;88.80;;;;;;4997773;28;20040;-65
2023/04/21 08:44:07;;;;;;;10.93;8.25;;;16.00;88.90;;;;;;4996548;28;20026;-65
2023/04/21 08:46:34;;;;;;;11.90;8.07;;;16.10;88.80;;;;;;4997458;28;20289;-65
2023/04/21 08:49:01;;;;;;;12.90;8.90;;;16.20;88.10;;;;;;4997426;28;20111;-66
2023/04/21 08:51:27;;;;;;;12.85;7.88;;;16.20;87.70;;;;;;4997150;28;20374;-66
2023/04/21 08:53:56;;;;;;;11.40;7.93;;;16.30;87.40;;;;;;4995692;28;20038;-66
2023/04/21 08:56:25;;;;;;;11.15;8.65;;;16.40;87.40;;;;;;4996594;28;20030;-66
2023/04/21 08:58:51;;;;;;;11.57;8.13;;;16.50;86.70;;;;;;4995476;28;20092;-65
2023/04/21 09:01:17;;;;;;;13.40;8.52;;;16.60;86.50;;;;;;4995520;28;20519;-65
2023/04/21 09:03:43;;;;;;;11.52;7.80;;;16.60;86.10;;;;;;4995670;28;20129;-67
2023/04/21 09:06:11;;;;;;;13.73;8.52;;;16.70;85.80;;;;;;4994568;28;20643;-65
2023/04/21 09:08:41;;;;;;;11.63;8.57;;;16.80;85.70;;;;;;4994093;28;20682;-66
2023/04/21 09:11:07;;;;;;;10.57;8.45;;;16.80;85.30;;;;;;4995500;28;20033;-65
2023/04/21 09:13:34;;;;;;;11.98;8.10;;;16.90;85.00;;;;;;4996626;28;20097;-64
2023/04/21 09:16:02;;;;;;;11.65;7.40;;;17.00;84.40;;;;;;4994691;28;20113;-65
2023/04/21 09:18:34;;;;;;;11.25;7.30;;;17.00;84.30;;;;;;4994293;28;20029;-65
2023/04/21 09:21:11;;;;;;;11.02;7.53;;;17.10;84.20;;;;;;4996876;28;20112;-65
2023/04/21 09:24:04;;;;;;;9.57;7.30;;;17.20;83.30;;;;;;4994345;28;20045;-65
2023/04/21 09:26:30;;;;;;;10.40;7.85;;;17.30;83.50;;;;;;4995531;28;20050;-65
2023/04/21 09:28:56;;;;;;;10.73;7.30;;;17.30;83.10;;;;;;4993880;28;20359;-65
2023/04/21 09:31:23;;;;;;;9.75;7.38;;;17.30;83.40;;;;;;4996134;28;20490;-65
2023/04/21 09:33:56;;;;;;;10.40;7.07;;;17.40;82.70;;;;;;4994521;28;20037;-65
2023/04/21 09:36:28;;;;;;;10.80;6.85;;;17.50;82.50;;;;;;5005540;28;20026;-65
2023/04/21 09:38:53;;;;;;;15.07;6.50;;;17.60;82.30;;;;;;4993585;28;20034;-65
2023/04/21 09:41:20;;;;;;;9.05;7.10;;;17.70;81.60;;;;;;4996021;28;20075;-65
2023/04/21 09:43:47;;;;;;;8.95;6.95;;;17.80;81.40;;;;;;4994525;28;20539;-65
2023/04/21 09:46:19;;;;;;;11.00;6.85;;;17.90;81.50;;;;;;4995137;28;20033;-65
2023/04/21 09:48:45;;;;;;;11.85;7.78;;;18.00;82.00;;;;;;4994739;28;20486;-65
2023/04/21 09:51:12;;;;;;;9.40;6.85;;;18.00;81.30;;;;;;4994813;28;20033;-65
2023/04/21 09:53:40;;;;;;;12.93;7.32;;;18.10;81.20;;;;;;4992556;28;20197;-65
2023/04/21 09:56:11;;;;;;;11.27;6.68;;;18.20;80.80;;;;;;4992744;28;20361;-64
2023/04/21 09:58:46;;;;;;;11.38;7.88;;;18.30;80.50;;;;;;4995774;28;20034;-65
2023/04/21 10:01:13;;;;;;;8.98;6.72;;;18.30;79.60;;;;;;4993443;28;20042;-65
2023/04/21 10:03:40;;;;;;;11.63;6.82;;;18.30;79.00;;;;;;4991199;28;20048;-65
2023/04/21 10:06:07;;;;;;;9.80;6.18;;;18.40;78.90;;;;;;4994869;28;20152;-65
2023/04/21 10:08:34;;;;;;;12.50;6.70;;;18.50;78.90;;;;;;4994082;28;20105;-64
2023/04/21 10:11:01;;;;;;;6.55;5.78;;;18.50;79.00;;;;;;4994461;28;20034;-64
2023/04/21 10:13:27;;;;;;;8.98;6.28;;;18.60;78.90;;;;;;4986769;28;20555;-64
2023/04/21 10:16:07;;;;;;;10.63;6.25;;;18.70;78.50;;;;;;4992202;28;20042;-64
2023/04/21 10:18:37;;;;;;;10.80;6.70;;;18.80;77.30;;;;;;4994206;28;20149;-64
2023/04/21 10:21:09;;;;;;;9.18;6.25;;;18.80;77.20;;;;;;4993760;28;20030;-64
2023/04/21 10:23:41;;;;;;;8.32;6.38;;;18.80;76.30;;;;;;4992021;28;20038;-64
2023/04/21 10:26:15;;;;;;;8.75;6.00;;;18.90;76.40;;;;;;4993221;28;20477;-64
2023/04/21 10:28:59;;;;;;;10.00;5.85;;;18.90;75.10;;;;;;4993814;28;20465;-64
2023/04/21 10:31:31;;;;;;;10.65;6.25;;;18.90;75.40;;;;;;4992983;28;21201;-64
2023/04/21 10:34:06;;;;;;;8.70;5.95;;;19.00;75.10;;;;;;4993919;28;20034;-65
2023/04/21 10:36:45;;;;;;;9.68;6.18;;;19.00;74.20;;;;;;4997263;28;20205;-64
2023/04/21 10:39:24;;;;;;;8.00;6.22;;;19.00;74.20;;;;;;4993550;28;20041;-64
2023/04/21 10:41:50;;;;;;;8.52;5.90;;;19.00;74.60;;;;;;4995217;28;20026;-64
2023/04/21 10:44:16;;;;;;;9.90;6.32;;;19.10;73.90;;;;;;4994088;28;20041;-64
2023/04/21 10:46:47;;;;;;;9.05;6.07;;;19.10;74.10;;;;;;4994966;28;20080;-64
2023/04/21 10:49:23;;;;;;;10.88;5.72;;;19.20;74.00;;;;;;4993703;28;20044;-64
2023/04/21 10:51:58;;;;;;;9.02;5.70;;;19.30;73.80;;;;;;4994013;28;20029;-64
2023/04/21 10:54:46;;;;;;;;;;;19.40;73.30;;;;;;4991964;28;20499;-64
2023/04/21 10:57:17;;;;;;;9.05;5.90;;;19.40;74.00;;;;;;4995940;28;20440;-63
2023/04/21 10:59:43;;;;;;;7.53;5.57;;;19.40;72.10;;;;;;4994563;28;20481;-63
2023/04/21 11:02:14;;;;;;;11.15;6.30;;;19.40;72.10;;;;;;4999609;28;20030;-63
2023/04/21 11:04:46;;;;;;;10.55;6.32;;;19.50;72.20;;;;;;4993215;28;20140;-63
2023/04/21 11:07:21;;;;;;;7.65;5.45;;;19.50;72.60;;;;;;4994197;28;20037;-63
2023/04/21 11:09:49;;;;;;;7.68;6.18;;;19.60;72.20;;;;;;4993035;28;20057;-64
2023/04/21 11:12:17;;;;;;;8.52;6.07;;;19.60;72.10;;;;;;4992806;28;20101;-64
2023/04/21 11:14:46;;;;;;;7.50;6.43;;;19.60;71.20;;;;;;4993020;28;20539;-64
2023/04/21 11:17:14;;;;;;;13.43;6.20;;;19.60;70.70;;;;;;4993825;28;20038;-64
2023/04/21 11:19:40;;;;;;;8.85;6.10;;;19.60;70.00;;;;;;4992615;28;20033;-64
2023/04/21 11:22:06;;;;;;;9.23;6.53;;;19.60;69.90;;;;;;4987689;28;20596;-64
2023/04/21 11:24:32;;;;;;;7.93;5.40;;;19.50;69.30;;;;;;4992155;28;20042;-64
2023/04/21 11:27:00;;;;;;;9.77;5.68;;;19.60;69.70;;;;;;4993976;28;20028;-64
2023/04/21 11:29:28;;;;;;;16.08;6.82;;;19.60;70.30;;;;;;4992735;28;20033;-64
2023/04/21 11:31:54;;;;;;;13.75;5.75;;;19.70;70.30;;;;;;4992497;28;20101;-64
2023/04/21 11:34:20;;;;;;;8.80;5.65;;;19.80;70.30;;;;;;4992576;28;20022;-64
2023/04/21 11:36:47;;;;;;;8.02;5.97;;;19.80;70.20;;;;;;4992469;28;20455;-63
2023/04/21 11:39:16;;;;;;;9.82;5.90;;;19.80;69.40;;;;;;4996245;28;20389;-63
2023/04/21 11:41:43;;;;;;;7.78;5.22;;;19.80;69.50;;;;;;4996606;28;20034;-63
2023/04/21 11:44:11;;;;;;;6.38;4.82;;;19.80;69.00;;;;;;4995623;28;20037;-63
2023/04/21 11:46:42;;;;;;;10.07;5.82;;;19.80;68.90;;;;;;4995974;28;20026;-63
2023/04/21 11:49:12;;;;;;;10.35;5.93;;;19.70;66.80;;;;;;4995213;28;20387;-64
2023/04/21 11:51:42;;;;;;;15.23;6.13;;;19.70;67.20;;;;;;4997198;28;20057;-65
2023/04/21 11:54:13;;;;;;;8.10;6.30;;;19.70;67.20;;;;;;4996059;28;20381;-64
2023/04/21 11:56:40;;;;;;;7.25;5.07;;;19.70;67.10;;;;;;4995587;28;20049;-63
2023/04/21 11:59:10;;;;;;;9.60;5.57;;;19.60;67.00;;;;;;4995638;28;20457;-64
2023/04/21 12:01:51;;;;;;;9.05;5.85;;;19.60;66.80;;;;;;4995554;28;20108;-64
2023/04/21 12:04:18;;;;;;;9.52;5.95;;;19.60;66.90;;;;;;4996317;28;20053;-64
2023/04/21 12:06:45;;;;;;;10.00;6.10;;;19.60;67.30;;;;;;4994036;28;20087;-64
2023/04/21 12:09:18;;;;;;;8.65;5.93;;;19.60;67.80;;;;;;4995232;28;20122;-64
2023/04/21 12:11:48;;;;;;;9.95;5.85;;;19.60;67.80;;;;;;4996028;28;20030;-63
2023/04/21 12:14:15;;;;;;;7.35;6.03;;;19.60;67.70;;;;;;4995478;28;20029;-64
2023/04/21 12:16:41;;;;;;;8.98;5.65;;;19.60;66.90;;;;;;4995646;28;20379;-64
2023/04/21 12:19:07;;;;;;;7.18;4.82;;;19.50;65.60;;;;;;4993473;28;20029;-64
2023/04/21 12:21:32;;;;;;;9.25;5.40;;;19.50;66.10;;;;;;4992975;28;20477;-63
2023/04/21 12:23:58;;;;;;;9.35;5.93;;;19.70;66.80;;;;;;4994344;28;20057;-64
2023/04/21 12:26:23;;;;;;;8.88;5.32;;;19.70;67.40;;;;;;4996681;28;20026;-63
2023/04/21 12:28:50;;;;;;;8.50;6.03;;;19.80;67.00;;;;;;4995393;28;20046;-64
2023/04/21 12:31:17;;;;;;;8.85;6.20;;;19.80;66.50;;;;;;4997357;28;20084;-63
2023/04/21 12:33:42;;;;;;;10.32;6.20;;;19.80;66.70;;;;;;4993382;28;20033;-64
2023/04/21 12:36:08;;;;;;;10.50;5.75;;;19.90;66.90;;;;;;4994581;28;20038;-64
2023/04/21 12:38:34;;;;;;;9.10;6.28;;;20.00;67.30;;;;;;4995810;28;20026;-64